Historyczne dane pomiarowe

Dodano dane terminowe – wersja testowa.

Dane z okresu 1951-2019

Wersja bazy: 1.34 [2019-03-16, lista zmian], aktualizacja planowana na 2019-04-15

Dane meteo z obszaru Polski uzyskane na podstawie danych udostępnionych przez Instytut Meteorologii i Gospodarki Wodnej – Państwowy Instytut Badawczy.

 

Wybierz Datę:    

       

TemperaturaWilgotnośćWiatrCiśnienieOpadyŚniegCzas trwania zjawisk
 Stacja t tx tn tng RH VA  wxwx mslp ppp RRR   cm mm wxwxwxwxwxwxwx
1961-08-14 13.4 19.6 9.6--- 2.7 0.3---- 0.0------------
1961-08-13 12.8 19.4 10.9--- 5.3 0.3---- 10.2------------
1961-08-12 19.4 24.4 16.6--- 6.7 0.7---- 13.4------------
1961-08-11 24.2 32.5 21.1--- 2.7 2.0---- 4.4------------
1961-08-10 23.2 29.3 18.1--- 2.7 0.3---- 9.8------------
1961-08-09 21.6 28.3 10.1--- 0.0 0.0---- 61.4------------
1961-08-08 18.9 23.0 16.6--- 5.3 1.7---- 9.4------------
1961-08-07 23.4 30.3 16.1--- 0.0 0.3---- 0.0------------
1961-08-06 23.0 29.3 15.6--- 0.0 0.0---- 0.0------------
1961-08-05 17.6 22.9 14.6--- 3.3 1.0---- 0.0------------
1961-08-04 16.1 21.4 13.1--- 0.0 1.0---- 0.0------------
1961-08-03 19.0 25.8 11.3--- 2.7 1.0---- 11.2------------
1961-08-02 19.3 24.8 11.1--- 0.0 0.0---- 0.0------------
1961-08-01 15.6 21.4 11.6--- 2.7 1.0---- 0.0------------
1961-07-31 13.6 18.4 11.5--- 6.0 1.3---- 1.1------------
1961-07-30 13.7 16.1 11.6--- 8.0 0.7---- 15.2------------
1961-07-29 15.0 20.6 12.9--- 8.0 1.7---- 35.5------------
1961-07-28 20.5 27.8 17.1--- 5.3 0.0---- 4.1------------
1961-07-27 21.5 26.3 13.1--- 2.7 2.7---- 0.0------------
1961-07-26 16.4 21.4 10.5--- 6.7 0.7---- 0.0------------
1961-07-25 13.4 18.4 10.1--- 8.0 0.7---- 0.0------------
1961-07-24 14.7 18.9 10.1--- 4.0 1.3---- 0.0------------
1961-07-23 15.3 20.4 11.1--- 4.0 1.3---- 0.0------------
1961-07-22 14.8 17.8 13.1--- 5.3 1.3---- 2.8------------
1961-07-21 15.2 20.2 12.6--- 5.3 1.3---- 0.0------------
1961-07-20 16.1 21.9 10.7--- 5.3 0.7---- 20.1------------
1961-07-19 15.7 22.2 8.6--- 1.3 0.3---- 4.7------------
1961-07-18 14.8 19.4 11.1--- 1.3 2.0---- 0.0------------
1961-07-17 15.8 20.6 13.1--- 6.7 0.3---- 3.2------------
1961-07-16 16.9 23.9 13.1--- 2.7 2.0---- 0.0------------
1961-07-15 19.2 24.9 11.1--- 0.0 2.0---- 0.7------------
1961-07-14 15.0 18.5 13.3--- 2.7 1.3---- 1.4------------
1961-07-13 21.2 27.9 15.1--- 4.0 1.0---- 2.8------------
1961-07-12 19.4 24.9 12.9--- 4.0 1.0---- 3.4------------
1961-07-11 16.0 19.9 9.6--- 0.0 1.0---- 0.0------------
1961-07-10 14.2 18.4 10.6--- 5.3 3.3---- 0.0------------
1961-07-09 16.6 22.6 8.1--- 5.3 0.7---- 0.9------------
1961-07-08 14.7 20.4 7.1--- 0.0 0.3---- 0.0------------
1961-07-07 13.3 18.4 9.1--- 2.7 1.0---- 0.0------------
1961-07-06 13.6 18.4 10.1--- 5.3 0.7---- 0.0------------
1961-07-05 15.1 19.4 13.7--- 8.0 1.3---- 1.4------------
1961-07-04 22.3 30.7 16.6--- 4.7 0.7---- 4.0------------
1961-07-03 22.2 30.5 12.1--- 0.0 0.0---- 0.0------------
1961-07-02 20.6 25.9 10.8--- 0.0 0.0---- 0.0------------
1961-07-01 19.0 25.3 12.1--- 0.0 0.7---- 0.0------------
1961-06-30 17.0 22.4 11.6--- 6.7 0.3---- 0.0------------
1961-06-29 15.4 18.4 8.1--- 5.3 1.0---- 0.0------------
1961-06-28 15.1 24.8 12.1--- 4.0 1.7---- 3.8------------
1961-06-27 25.4 31.3 16.1--- 2.7 0.7---- 12.7------------
1961-06-26 22.1 30.9 18.1--- 2.7 1.0---- 1.5------------
1961-06-25 22.8 28.3 13.1--- 1.3 1.0---- 0.0------------
1961-06-24 19.2 24.4 13.1--- 2.7 1.3---- 0.0------------
1961-06-23 17.8 22.4 15.3--- 6.7 0.7---- 5.6------------
1961-06-22 16.6 23.9 10.8--- 2.7 0.3---- 0.0------------
1961-06-21 16.8 22.6 6.6--- 0.0 0.7---- 0.0------------
1961-06-20 14.7 20.0 11.6--- 1.3 1.0---- 0.0------------
1961-06-19 20.8 27.7 16.3--- 2.7 1.3---- 0.0------------
1961-06-18 19.8 25.3 9.1--- 0.0 0.3---- 0.0------------
1961-06-17 15.1 21.9 8.7--- 0.0 0.0---- 0.0------------
1961-06-16 13.3 18.4 9.1--- 2.7 1.3---- 0.0------------
491.5 ms

 

Źródłem pochodzenia danych jest Instytut Meteorologii i Gospodarki Wodnej – Państwowy Instytut Badawczy. Dane Instytutu Meteorologii i Gospodarki Wodnej – Państwowego Instytutu Badawczego zostały przetworzone.

Dane źródłowe można odnaleźć na stronie https://dane.imgw.pl